sensor_id;sensor_type;location;lat;lon;timestamp;pressure;altitude;pressure_sealevel;temperature;humidity
79586;BME280;69054;50.866;4.636;2023-09-08T00:00:09;101208.69;;;16.02;100.00
79586;BME280;69054;50.866;4.636;2023-09-08T00:02:35;101207.22;;;16.00;100.00
79586;BME280;69054;50.866;4.636;2023-09-08T00:05:00;101211.25;;;15.97;100.00
79586;BME280;69054;50.866;4.636;2023-09-08T00:07:25;101211.25;;;15.97;100.00
79586;BME280;69054;50.866;4.636;2023-09-08T00:09:51;101212.09;;;15.98;100.00
79586;BME280;69054;50.866;4.636;2023-09-08T00:12:17;101207.03;;;15.94;100.00
79586;BME280;69054;50.866;4.636;2023-09-08T00:14:42;101212.13;;;15.91;100.00
79586;BME280;69054;50.866;4.636;2023-09-08T00:17:08;101216.41;;;15.87;100.00
79586;BME280;69054;50.866;4.636;2023-09-08T00:19:33;101212.19;;;15.84;100.00
79586;BME280;69054;50.866;4.636;2023-09-08T00:21:59;101218.97;;;15.82;100.00
79586;BME280;69054;50.866;4.636;2023-09-08T00:24:25;101219.19;;;15.80;100.00
79586;BME280;69054;50.866;4.636;2023-09-08T00:26:51;101218.56;;;15.78;100.00
79586;BME280;69054;50.866;4.636;2023-09-08T00:29:16;101213.69;;;15.80;100.00
79586;BME280;69054;50.866;4.636;2023-09-08T00:31:42;101221.31;;;15.78;100.00
79586;BME280;69054;50.866;4.636;2023-09-08T00:34:07;101218.13;;;15.74;100.00
79586;BME280;69054;50.866;4.636;2023-09-08T00:36:33;101223.44;;;15.69;100.00
79586;BME280;69054;50.866;4.636;2023-09-08T00:38:58;101220.31;;;15.66;100.00
79586;BME280;69054;50.866;4.636;2023-09-08T00:41:24;101213.53;;;15.61;100.00
79586;BME280;69054;50.866;4.636;2023-09-08T00:43:50;101213.53;;;15.61;100.00
79586;BME280;69054;50.866;4.636;2023-09-08T00:46:16;101219.03;;;15.61;100.00
79586;BME280;69054;50.866;4.636;2023-09-08T00:48:41;101211.00;;;15.60;100.00
79586;BME280;69054;50.866;4.636;2023-09-08T00:51:08;101220.75;;;15.56;100.00
79586;BME280;69054;50.866;4.636;2023-09-08T00:53:35;101216.50;;;15.53;100.00
79586;BME280;69054;50.866;4.636;2023-09-08T00:56:00;101211.00;;;15.53;100.00
79586;BME280;69054;50.866;4.636;2023-09-08T00:58:26;101216.31;;;15.55;100.00
79586;BME280;69054;50.866;4.636;2023-09-08T01:00:52;101213.75;;;15.53;100.00
79586;BME280;69054;50.866;4.636;2023-09-08T01:03:17;101214.41;;;15.55;100.00
79586;BME280;69054;50.866;4.636;2023-09-08T01:05:43;101211.66;;;15.55;100.00
79586;BME280;69054;50.866;4.636;2023-09-08T01:08:12;101212.31;;;15.51;100.00
79586;BME280;69054;50.866;4.636;2023-09-08T01:10:38;101212.75;;;15.48;100.00
79586;BME280;69054;50.866;4.636;2023-09-08T01:13:04;101214.41;;;15.55;100.00
79586;BME280;69054;50.866;4.636;2023-09-08T01:15:29;101216.94;;;15.50;100.00
79586;BME280;69054;50.866;4.636;2023-09-08T01:17:55;101210.00;;;15.48;100.00
79586;BME280;69054;50.866;4.636;2023-09-08T01:20:23;101218.03;;;15.42;100.00
79586;BME280;69054;50.866;4.636;2023-09-08T01:25:25;101213.19;;;15.38;100.00
79586;BME280;69054;50.866;4.636;2023-09-08T01:27:52;101215.13;;;15.37;100.00
79586;BME280;69054;50.866;4.636;2023-09-08T01:30:18;101216.81;;;15.32;100.00
79586;BME280;69054;50.866;4.636;2023-09-08T01:32:45;101213.66;;;15.28;100.00
79586;BME280;69054;50.866;4.636;2023-09-08T01:35:11;101210.25;;;15.26;100.00
79586;BME280;69054;50.866;4.636;2023-09-08T01:37:40;101207.72;;;15.24;100.00
79586;BME280;69054;50.866;4.636;2023-09-08T01:40:06;101206.28;;;15.22;100.00
79586;BME280;69054;50.866;4.636;2023-09-08T01:42:32;101205.41;;;15.21;100.00
79586;BME280;69054;50.866;4.636;2023-09-08T01:44:57;101201.81;;;15.21;100.00
79586;BME280;69054;50.866;4.636;2023-09-08T01:47:23;101207.13;;;15.16;100.00
79586;BME280;69054;50.866;4.636;2023-09-08T01:49:48;101211.38;;;15.12;100.00
79586;BME280;69054;50.866;4.636;2023-09-08T01:52:13;101204.38;;;15.09;100.00
79586;BME280;69054;50.866;4.636;2023-09-08T01:54:39;101212.00;;;15.14;100.00
79586;BME280;69054;50.866;4.636;2023-09-08T01:57:04;101203.56;;;15.08;100.00
79586;BME280;69054;50.866;4.636;2023-09-08T01:59:30;101209.50;;;15.05;100.00
79586;BME280;69054;50.866;4.636;2023-09-08T02:01:55;101208.00;;;15.03;100.00
79586;BME280;69054;50.866;4.636;2023-09-08T02:04:20;101203.75;;;15.00;100.00
79586;BME280;69054;50.866;4.636;2023-09-08T02:06:46;101204.19;;;14.97;100.00
79586;BME280;69054;50.866;4.636;2023-09-08T02:09:14;101210.56;;;14.98;100.00
79586;BME280;69054;50.866;4.636;2023-09-08T02:11:39;101206.13;;;14.97;100.00
79586;BME280;69054;50.866;4.636;2023-09-08T02:14:05;101202.75;;;14.95;100.00
79586;BME280;69054;50.866;4.636;2023-09-08T02:16:30;101211.44;;;14.92;100.00
79586;BME280;69054;50.866;4.636;2023-09-08T02:18:55;101207.81;;;14.91;100.00
79586;BME280;69054;50.866;4.636;2023-09-08T02:21:21;101209.72;;;14.90;100.00
79586;BME280;69054;50.866;4.636;2023-09-08T02:23:47;101197.88;;;14.90;100.00
79586;BME280;69054;50.866;4.636;2023-09-08T02:26:12;101197.25;;;14.95;100.00
79586;BME280;69054;50.866;4.636;2023-09-08T02:28:37;101201.44;;;14.97;100.00
79586;BME280;69054;50.866;4.636;2023-09-08T02:31:03;101201.44;;;14.97;100.00
79586;BME280;69054;50.866;4.636;2023-09-08T02:33:28;101201.88;;;14.94;100.00
79586;BME280;69054;50.866;4.636;2023-09-08T02:35:54;101205.28;;;14.89;100.00
79586;BME280;69054;50.866;4.636;2023-09-08T02:38:19;101206.56;;;14.87;100.00
79586;BME280;69054;50.866;4.636;2023-09-08T02:40:44;101200.41;;;14.85;100.00
79586;BME280;69054;50.866;4.636;2023-09-08T02:43:10;101202.94;;;14.86;100.00
79586;BME280;69054;50.866;4.636;2023-09-08T02:45:36;101206.56;;;14.80;100.00
79586;BME280;69054;50.866;4.636;2023-09-08T02:48:01;101205.09;;;14.78;100.00
79586;BME280;69054;50.866;4.636;2023-09-08T02:50:26;101200.22;;;14.73;100.00
79586;BME280;69054;50.866;4.636;2023-09-08T02:52:52;101209.53;;;14.72;100.00
79586;BME280;69054;50.866;4.636;2023-09-08T02:55:17;101196.22;;;14.69;100.00
79586;BME280;69054;50.866;4.636;2023-09-08T02:57:43;101206.34;;;14.68;100.00
79586;BME280;69054;50.866;4.636;2023-09-08T03:00:08;101200.44;;;14.65;100.00
79586;BME280;69054;50.866;4.636;2023-09-08T03:02:34;101200.88;;;14.62;100.00
79586;BME280;69054;50.866;4.636;2023-09-08T03:05:00;101196.59;;;14.59;100.00
79586;BME280;69054;50.866;4.636;2023-09-08T03:07:28;101195.56;;;14.60;100.00
79586;BME280;69054;50.866;4.636;2023-09-08T03:09:54;101194.72;;;14.60;100.00
79586;BME280;69054;50.866;4.636;2023-09-08T03:12:20;101198.94;;;14.55;100.00
79586;BME280;69054;50.866;4.636;2023-09-08T03:14:45;101192.81;;;14.53;100.00
79586;BME280;69054;50.866;4.636;2023-09-08T03:17:11;101188.38;;;14.52;100.00
79586;BME280;69054;50.866;4.636;2023-09-08T03:19:38;101189.41;;;14.51;100.00
79586;BME280;69054;50.866;4.636;2023-09-08T03:22:03;101189.22;;;14.53;100.00
79586;BME280;69054;50.866;4.636;2023-09-08T03:24:28;101195.13;;;14.50;100.00
79586;BME280;69054;50.866;4.636;2023-09-08T03:26:54;101196.81;;;14.51;100.00
79586;BME280;69054;50.866;4.636;2023-09-08T03:29:19;101188.59;;;14.51;100.00
79586;BME280;69054;50.866;4.636;2023-09-08T03:31:45;101193.47;;;14.49;100.00
79586;BME280;69054;50.866;4.636;2023-09-08T03:34:10;101185.81;;;14.44;100.00
79586;BME280;69054;50.866;4.636;2023-09-08T03:36:35;101182.22;;;14.44;100.00
79586;BME280;69054;50.866;4.636;2023-09-08T03:39:02;101187.09;;;14.42;100.00
79586;BME280;69054;50.866;4.636;2023-09-08T03:41:27;101181.59;;;14.42;100.00
79586;BME280;69054;50.866;4.636;2023-09-08T03:43:53;101176.53;;;14.38;100.00
79586;BME280;69054;50.866;4.636;2023-09-08T03:46:18;101179.50;;;14.37;100.00
79586;BME280;69054;50.866;4.636;2023-09-08T03:48:43;101182.00;;;14.32;100.00
79586;BME280;69054;50.866;4.636;2023-09-08T03:51:09;101176.53;;;14.25;100.00
79586;BME280;69054;50.866;4.636;2023-09-08T03:53:34;101176.28;;;14.20;100.00
79586;BME280;69054;50.866;4.636;2023-09-08T03:56:00;101172.91;;;14.18;100.00
79586;BME280;69054;50.866;4.636;2023-09-08T03:58:25;101171.88;;;14.19;100.00
79586;BME280;69054;50.866;4.636;2023-09-08T04:00:50;101171.44;;;14.15;100.00
79586;BME280;69054;50.866;4.636;2023-09-08T04:03:16;101168.47;;;14.10;100.00
79586;BME280;69054;50.866;4.636;2023-09-08T04:05:41;101168.06;;;14.07;100.00
79586;BME280;69054;50.866;4.636;2023-09-08T04:08:06;101168.06;;;14.07;100.00
79586;BME280;69054;50.866;4.636;2023-09-08T04:10:32;101173.78;;;14.05;100.00
79586;BME280;69054;50.866;4.636;2023-09-08T04:12:58;101172.50;;;14.01;100.00
79586;BME280;69054;50.866;4.636;2023-09-08T04:15:23;101173.97;;;14.04;100.00
79586;BME280;69054;50.866;4.636;2023-09-08T04:17:49;101174.81;;;14.04;100.00
79586;BME280;69054;50.866;4.636;2023-09-08T04:20:14;101174.41;;;14.00;100.00
79586;BME280;69054;50.866;4.636;2023-09-08T04:22:40;101176.91;;;13.95;100.00
79586;BME280;69054;50.866;4.636;2023-09-08T04:25:06;101180.50;;;13.96;100.00
79586;BME280;69054;50.866;4.636;2023-09-08T04:27:31;101177.94;;;13.94;100.00
79586;BME280;69054;50.866;4.636;2023-09-08T04:29:57;101175.63;;;13.91;100.00
79586;BME280;69054;50.866;4.636;2023-09-08T04:32:24;101183.25;;;13.89;100.00
79586;BME280;69054;50.866;4.636;2023-09-08T04:34:49;101176.03;;;13.88;100.00
79586;BME280;69054;50.866;4.636;2023-09-08T04:37:15;101186.19;;;13.88;100.00
79586;BME280;69054;50.866;4.636;2023-09-08T04:39:40;101184.91;;;13.83;100.00
79586;BME280;69054;50.866;4.636;2023-09-08T04:42:06;101184.06;;;13.83;100.00
79586;BME280;69054;50.866;4.636;2023-09-08T04:44:31;101193.16;;;13.83;100.00
79586;BME280;69054;50.866;4.636;2023-09-08T04:46:57;101183.00;;;13.77;100.00
79586;BME280;69054;50.866;4.636;2023-09-08T04:49:22;101187.44;;;13.78;100.00
79586;BME280;69054;50.866;4.636;2023-09-08T04:51:47;101186.81;;;13.76;100.00
79586;BME280;69054;50.866;4.636;2023-09-08T04:54:13;101185.53;;;13.79;100.00
79586;BME280;69054;50.866;4.636;2023-09-08T04:56:39;101188.28;;;13.79;100.00
79586;BME280;69054;50.866;4.636;2023-09-08T04:59:05;101189.16;;;13.79;100.00
79586;BME280;69054;50.866;4.636;2023-09-08T05:01:30;101186.81;;;13.76;100.00
79586;BME280;69054;50.866;4.636;2023-09-08T05:03:58;101191.66;;;13.74;100.00
79586;BME280;69054;50.866;4.636;2023-09-08T05:06:24;101187.84;;;13.75;100.00
79586;BME280;69054;50.866;4.636;2023-09-08T05:08:50;101183.41;;;13.74;100.00
79586;BME280;69054;50.866;4.636;2023-09-08T05:11:15;101185.31;;;13.74;100.00
79586;BME280;69054;50.866;4.636;2023-09-08T05:13:40;101185.94;;;13.76;100.00
79586;BME280;69054;50.866;4.636;2023-09-08T05:16:06;101194.22;;;13.82;100.00
79586;BME280;69054;50.866;4.636;2023-09-08T05:18:41;101197.59;;;13.84;100.00
79586;BME280;69054;50.866;4.636;2023-09-08T05:21:07;101201.00;;;13.93;100.00
79586;BME280;69054;50.866;4.636;2023-09-08T05:23:33;101197.22;;;14.08;100.00
79586;BME280;69054;50.866;4.636;2023-09-08T05:26:00;101199.56;;;14.17;100.00
79586;BME280;69054;50.866;4.636;2023-09-08T05:28:25;101205.47;;;14.21;100.00
79586;BME280;69054;50.866;4.636;2023-09-08T05:30:51;101201.69;;;14.22;100.00
79586;BME280;69054;50.866;4.636;2023-09-08T05:33:17;101198.09;;;14.28;100.00
79586;BME280;69054;50.866;4.636;2023-09-08T05:35:43;101199.78;;;14.36;100.00
79586;BME280;69054;50.866;4.636;2023-09-08T05:38:09;101201.88;;;14.47;100.00
79586;BME280;69054;50.866;4.636;2023-09-08T05:40:34;101208.69;;;14.58;100.00
79586;BME280;69054;50.866;4.636;2023-09-08T05:43:00;101205.31;;;14.63;100.00
79586;BME280;69054;50.866;4.636;2023-09-08T05:45:25;101204.88;;;14.72;100.00
79586;BME280;69054;50.866;4.636;2023-09-08T05:47:51;101218.00;;;14.84;100.00
79586;BME280;69054;50.866;4.636;2023-09-08T05:50:17;101221.78;;;14.96;100.00
79586;BME280;69054;50.866;4.636;2023-09-08T05:52:43;101218.16;;;15.16;100.00
79586;BME280;69054;50.866;4.636;2023-09-08T05:55:09;101224.59;;;15.48;100.00
79586;BME280;69054;50.866;4.636;2023-09-08T05:57:34;101232.13;;;15.79;100.00
79586;BME280;69054;50.866;4.636;2023-09-08T06:00:02;101223.00;;;16.18;100.00
79586;BME280;69054;50.866;4.636;2023-09-08T06:02:28;101235.88;;;16.56;100.00
79586;BME280;69054;50.866;4.636;2023-09-08T06:04:53;101230.97;;;16.83;100.00
79586;BME280;69054;50.866;4.636;2023-09-08T06:07:18;101234.97;;;17.12;100.00
79586;BME280;69054;50.866;4.636;2023-09-08T06:09:44;101237.13;;;17.47;100.00
79586;BME280;69054;50.866;4.636;2023-09-08T06:12:09;101242.91;;;17.95;100.00
79586;BME280;69054;50.866;4.636;2023-09-08T06:14:34;101240.06;;;18.43;100.00
79586;BME280;69054;50.866;4.636;2023-09-08T06:17:00;101238.09;;;18.86;100.00
79586;BME280;69054;50.866;4.636;2023-09-08T06:19:25;101245.53;;;19.21;100.00
79586;BME280;69054;50.866;4.636;2023-09-08T06:21:51;101247.31;;;19.51;98.95
79586;BME280;69054;50.866;4.636;2023-09-08T06:24:16;101254.22;;;19.89;97.35
79586;BME280;69054;50.866;4.636;2023-09-08T06:26:41;101252.97;;;20.26;96.21
79586;BME280;69054;50.866;4.636;2023-09-08T06:29:08;101251.31;;;20.42;87.18
79586;BME280;69054;50.866;4.636;2023-09-08T06:31:33;101256.34;;;20.73;90.67
79586;BME280;69054;50.866;4.636;2023-09-08T06:33:58;101262.97;;;21.06;89.77
79586;BME280;69054;50.866;4.636;2023-09-08T06:36:24;101258.19;;;21.02;81.38
79586;BME280;69054;50.866;4.636;2023-09-08T06:38:49;101262.09;;;21.23;85.10
79586;BME280;69054;50.866;4.636;2023-09-08T06:41:14;101265.00;;;21.50;83.83
79586;BME280;69054;50.866;4.636;2023-09-08T06:43:40;101265.44;;;21.86;82.56
79586;BME280;69054;50.866;4.636;2023-09-08T06:46:05;101267.31;;;22.30;82.32
79586;BME280;69054;50.866;4.636;2023-09-08T06:48:31;101275.75;;;22.62;80.64
79586;BME280;69054;50.866;4.636;2023-09-08T06:50:56;101274.38;;;23.02;78.97
79586;BME280;69054;50.866;4.636;2023-09-08T06:53:25;101277.22;;;23.50;77.65
79586;BME280;69054;50.866;4.636;2023-09-08T06:55:50;101282.19;;;23.91;76.23
79586;BME280;69054;50.866;4.636;2023-09-08T06:58:16;101279.75;;;24.31;73.22
79586;BME280;69054;50.866;4.636;2023-09-08T07:00:42;101274.78;;;24.53;74.09
79586;BME280;69054;50.866;4.636;2023-09-08T07:03:07;101284.25;;;24.37;70.95
79586;BME280;69054;50.866;4.636;2023-09-08T07:05:34;101278.72;;;24.62;69.53
79586;BME280;69054;50.866;4.636;2023-09-08T07:07:59;101287.38;;;24.87;67.36
79586;BME280;69054;50.866;4.636;2023-09-08T07:10:25;101288.50;;;24.91;66.30
79586;BME280;69054;50.866;4.636;2023-09-08T07:12:50;101284.84;;;25.11;68.46
79586;BME280;69054;50.866;4.636;2023-09-08T07:15:16;101287.88;;;25.45;65.49
79586;BME280;69054;50.866;4.636;2023-09-08T07:17:41;101279.41;;;25.71;64.31
79586;BME280;69054;50.866;4.636;2023-09-08T07:20:07;101278.31;;;25.57;64.03
79586;BME280;69054;50.866;4.636;2023-09-08T07:22:33;101282.66;;;25.89;65.58
79586;BME280;69054;50.866;4.636;2023-09-08T07:24:58;101284.53;;;26.14;61.07
79586;BME280;69054;50.866;4.636;2023-09-08T07:27:24;101286.75;;;26.62;61.49
79586;BME280;69054;50.866;4.636;2023-09-08T07:29:49;101291.97;;;26.73;60.04
79586;BME280;69054;50.866;4.636;2023-09-08T07:32:15;101285.91;;;26.66;59.31
79586;BME280;69054;50.866;4.636;2023-09-08T07:34:42;101295.75;;;26.93;58.78
79586;BME280;69054;50.866;4.636;2023-09-08T07:37:07;101292.41;;;26.91;58.47
79586;BME280;69054;50.866;4.636;2023-09-08T07:39:33;101290.94;;;26.99;58.59
79586;BME280;69054;50.866;4.636;2023-09-08T07:42:00;101289.19;;;26.73;57.50
79586;BME280;69054;50.866;4.636;2023-09-08T07:44:26;101286.59;;;27.12;58.42
79586;BME280;69054;50.866;4.636;2023-09-08T07:46:51;101298.25;;;27.77;56.54
79586;BME280;69054;50.866;4.636;2023-09-08T07:49:18;101291.66;;;27.87;55.88
79586;BME280;69054;50.866;4.636;2023-09-08T07:51:44;101295.81;;;27.71;55.98
79586;BME280;69054;50.866;4.636;2023-09-08T07:54:10;101287.34;;;28.19;54.86
79586;BME280;69054;50.866;4.636;2023-09-08T07:56:35;101301.22;;;28.29;54.65
79586;BME280;69054;50.866;4.636;2023-09-08T07:59:01;101300.78;;;28.22;53.86
79586;BME280;69054;50.866;4.636;2023-09-08T08:01:26;101299.09;;;28.78;53.56
79586;BME280;69054;50.866;4.636;2023-09-08T08:03:52;101301.25;;;29.14;52.28
79586;BME280;69054;50.866;4.636;2023-09-08T08:06:18;101304.47;;;29.41;50.77
79586;BME280;69054;50.866;4.636;2023-09-08T08:08:44;101297.94;;;29.12;51.32
79586;BME280;69054;50.866;4.636;2023-09-08T08:11:14;101300.84;;;29.07;51.61
79586;BME280;69054;50.866;4.636;2023-09-08T08:13:40;101296.63;;;29.24;51.94
79586;BME280;69054;50.866;4.636;2023-09-08T08:16:06;101298.03;;;29.54;50.88
79586;BME280;69054;50.866;4.636;2023-09-08T08:18:31;101299.38;;;29.56;50.71
79586;BME280;69054;50.866;4.636;2023-09-08T08:20:57;101300.31;;;29.66;51.09
79586;BME280;69054;50.866;4.636;2023-09-08T08:23:22;101309.03;;;30.20;49.39
79586;BME280;69054;50.866;4.636;2023-09-08T08:25:48;101293.19;;;30.24;49.75
79586;BME280;69054;50.866;4.636;2023-09-08T08:28:14;101296.38;;;30.45;48.42
79586;BME280;69054;50.866;4.636;2023-09-08T08:30:42;101294.00;;;31.06;47.15
79586;BME280;69054;50.866;4.636;2023-09-08T08:33:08;101293.31;;;31.01;47.70
79586;BME280;69054;50.866;4.636;2023-09-08T08:35:33;101305.09;;;31.25;46.50
79586;BME280;69054;50.866;4.636;2023-09-08T08:37:59;101298.69;;;31.91;45.00
79586;BME280;69054;50.866;4.636;2023-09-08T08:40:25;101302.78;;;32.16;44.21
79586;BME280;69054;50.866;4.636;2023-09-08T08:43:01;101306.44;;;32.96;42.70
79586;BME280;69054;50.866;4.636;2023-09-08T08:45:27;101297.94;;;32.96;42.92
79586;BME280;69054;50.866;4.636;2023-09-08T08:47:54;101309.38;;;33.17;42.26
79586;BME280;69054;50.866;4.636;2023-09-08T08:50:21;101310.72;;;33.67;41.11
79586;BME280;69054;50.866;4.636;2023-09-08T08:52:47;101308.28;;;32.83;43.19
79586;BME280;69054;50.866;4.636;2023-09-08T08:55:12;101312.75;;;33.01;42.74
79586;BME280;69054;50.866;4.636;2023-09-08T08:57:40;101301.97;;;32.95;43.52
79586;BME280;69054;50.866;4.636;2023-09-08T09:00:07;101310.06;;;33.05;42.07
79586;BME280;69054;50.866;4.636;2023-09-08T09:02:41;101309.47;;;33.85;40.86
79586;BME280;69054;50.866;4.636;2023-09-08T09:05:11;101309.59;;;33.59;41.70
79586;BME280;69054;50.866;4.636;2023-09-08T09:07:39;101308.81;;;34.09;40.51
79586;BME280;69054;50.866;4.636;2023-09-08T09:10:06;101315.38;;;34.31;40.10
79586;BME280;69054;50.866;4.636;2023-09-08T09:12:32;101311.94;;;34.17;40.77
79586;BME280;69054;50.866;4.636;2023-09-08T09:14:59;101311.78;;;34.97;39.58
79586;BME280;69054;50.866;4.636;2023-09-08T09:17:25;101310.03;;;35.51;38.15
79586;BME280;69054;50.866;4.636;2023-09-08T09:19:50;101310.84;;;35.76;38.15
79586;BME280;69054;50.866;4.636;2023-09-08T09:22:20;101314.66;;;35.68;37.44
79586;BME280;69054;50.866;4.636;2023-09-08T09:24:46;101318.63;;;34.42;39.61
79586;BME280;69054;50.866;4.636;2023-09-08T09:27:12;101314.06;;;35.04;39.82
79586;BME280;69054;50.866;4.636;2023-09-08T09:29:50;101316.19;;;35.07;38.65
79586;BME280;69054;50.866;4.636;2023-09-08T09:32:16;101315.63;;;35.14;38.88
79586;BME280;69054;50.866;4.636;2023-09-08T09:34:50;101315.94;;;35.00;39.13
79586;BME280;69054;50.866;4.636;2023-09-08T09:37:16;101312.97;;;35.30;38.80
79586;BME280;69054;50.866;4.636;2023-09-08T09:39:41;101309.91;;;36.09;36.86
79586;BME280;69054;50.866;4.636;2023-09-08T09:42:07;101312.28;;;35.82;37.26
79586;BME280;69054;50.866;4.636;2023-09-08T09:44:32;101304.00;;;36.55;36.19
79586;BME280;69054;50.866;4.636;2023-09-08T09:47:00;101301.53;;;35.88;37.56
79586;BME280;69054;50.866;4.636;2023-09-08T09:49:26;101307.63;;;36.68;36.29
79586;BME280;69054;50.866;4.636;2023-09-08T09:51:58;101311.88;;;36.74;35.19
79586;BME280;69054;50.866;4.636;2023-09-08T09:54:23;101312.31;;;37.33;34.25
79586;BME280;69054;50.866;4.636;2023-09-08T09:56:49;101318.25;;;37.59;34.48
79586;BME280;69054;50.866;4.636;2023-09-08T09:59:17;101318.53;;;37.86;33.85
79586;BME280;69054;50.866;4.636;2023-09-08T10:01:43;101323.50;;;38.05;33.49
79586;BME280;69054;50.866;4.636;2023-09-08T10:04:09;101312.44;;;38.04;34.19
79586;BME280;69054;50.866;4.636;2023-09-08T10:06:37;101320.53;;;38.17;32.89
79586;BME280;69054;50.866;4.636;2023-09-08T10:09:04;101313.88;;;38.49;32.54
79586;BME280;69054;50.866;4.636;2023-09-08T10:11:34;101317.97;;;38.32;31.90
79586;BME280;69054;50.866;4.636;2023-09-08T10:14:01;101311.09;;;38.33;33.62
79586;BME280;69054;50.866;4.636;2023-09-08T10:16:28;101314.75;;;38.53;31.76
79586;BME280;69054;50.866;4.636;2023-09-08T10:18:57;101309.94;;;38.73;31.68
79586;BME280;69054;50.866;4.636;2023-09-08T10:21:26;101311.69;;;39.01;31.62
79586;BME280;69054;50.866;4.636;2023-09-08T10:26:43;101320.16;;;39.17;29.80
79586;BME280;69054;50.866;4.636;2023-09-08T10:29:09;101315.34;;;39.01;30.68
79586;BME280;69054;50.866;4.636;2023-09-08T10:31:35;101311.94;;;38.73;31.04
79586;BME280;69054;50.866;4.636;2023-09-08T10:34:01;101310.91;;;39.04;31.33
79586;BME280;69054;50.866;4.636;2023-09-08T10:36:27;101307.94;;;38.58;32.05
79586;BME280;69054;50.866;4.636;2023-09-08T10:38:53;101311.09;;;39.34;29.60
79586;BME280;69054;50.866;4.636;2023-09-08T10:44:03;101318.19;;;39.21;30.25
79586;BME280;69054;50.866;4.636;2023-09-08T10:46:32;101311.69;;;39.97;28.68
79586;BME280;69054;50.866;4.636;2023-09-08T10:49:06;101306.22;;;39.85;29.69
79586;BME280;69054;50.866;4.636;2023-09-08T10:51:33;101304.66;;;40.14;29.72
79586;BME280;69054;50.866;4.636;2023-09-08T10:54:00;101303.25;;;39.78;29.37
79586;BME280;69054;50.866;4.636;2023-09-08T10:56:49;101305.25;;;39.08;30.71
79586;BME280;69054;50.866;4.636;2023-09-08T10:59:18;101305.59;;;38.44;31.15
79586;BME280;69054;50.866;4.636;2023-09-08T11:01:44;101312.09;;;38.05;32.43
79586;BME280;69054;50.866;4.636;2023-09-08T11:04:09;101303.63;;;37.93;31.98
79586;BME280;69054;50.866;4.636;2023-09-08T11:06:38;101301.72;;;38.72;31.28
79586;BME280;69054;50.866;4.636;2023-09-08T11:09:07;101306.75;;;39.44;29.54
79586;BME280;69054;50.866;4.636;2023-09-08T11:11:33;101301.28;;;39.55;30.58
79586;BME280;69054;50.866;4.636;2023-09-08T11:13:59;101303.53;;;39.69;29.51
79586;BME280;69054;50.866;4.636;2023-09-08T11:16:24;101311.66;;;39.67;29.40
79586;BME280;69054;50.866;4.636;2023-09-08T11:18:54;101295.03;;;39.99;28.44
79586;BME280;69054;50.866;4.636;2023-09-08T11:21:20;101308.88;;;39.70;29.71
79586;BME280;69054;50.866;4.636;2023-09-08T11:23:46;101305.41;;;39.84;29.46
79586;BME280;69054;50.866;4.636;2023-09-08T11:26:12;101291.97;;;40.79;27.93
79586;BME280;69054;50.866;4.636;2023-09-08T11:28:37;101302.09;;;41.04;27.05
79586;BME280;69054;50.866;4.636;2023-09-08T11:31:03;101315.94;;;40.64;27.70
79586;BME280;69054;50.866;4.636;2023-09-08T11:33:33;101302.81;;;40.59;27.75
79586;BME280;69054;50.866;4.636;2023-09-08T11:35:59;101295.03;;;40.30;27.99
79586;BME280;69054;50.866;4.636;2023-09-08T11:38:28;101298.03;;;40.74;26.90
79586;BME280;69054;50.866;4.636;2023-09-08T11:40:56;101299.97;;;40.97;27.23
79586;BME280;69054;50.866;4.636;2023-09-08T11:43:22;101295.13;;;40.67;27.73
79586;BME280;69054;50.866;4.636;2023-09-08T11:45:48;101296.91;;;40.45;26.99
79586;BME280;69054;50.866;4.636;2023-09-08T11:48:16;101293.28;;;41.27;25.97
79586;BME280;69054;50.866;4.636;2023-09-08T11:50:42;101283.78;;;40.44;26.42
79586;BME280;69054;50.866;4.636;2023-09-08T11:53:09;101282.78;;;39.06;28.51
79586;BME280;69054;50.866;4.636;2023-09-08T11:55:34;101286.81;;;38.62;29.77
79586;BME280;69054;50.866;4.636;2023-09-08T11:58:02;101280.91;;;39.14;28.05
79586;BME280;69054;50.866;4.636;2023-09-08T12:00:28;101284.69;;;39.64;28.18
79586;BME280;69054;50.866;4.636;2023-09-08T12:02:54;101282.59;;;40.18;27.25
79586;BME280;69054;50.866;4.636;2023-09-08T12:07:51;101271.47;;;40.09;26.75
79586;BME280;69054;50.866;4.636;2023-09-08T12:10:17;101272.19;;;39.53;26.59
79586;BME280;69054;50.866;4.636;2023-09-08T12:12:49;101274.22;;;39.06;28.87
79586;BME280;69054;50.866;4.636;2023-09-08T12:17:59;101272.94;;;38.61;28.22
79586;BME280;69054;50.866;4.636;2023-09-08T12:20:25;101283.16;;;39.24;29.04
79586;BME280;69054;50.866;4.636;2023-09-08T12:22:50;101278.38;;;39.82;27.68
79586;BME280;69054;50.866;4.636;2023-09-08T12:25:17;101274.38;;;40.43;26.14
79586;BME280;69054;50.866;4.636;2023-09-08T12:27:42;101272.22;;;40.67;25.31
79586;BME280;69054;50.866;4.636;2023-09-08T12:30:08;101273.22;;;41.27;25.23
79586;BME280;69054;50.866;4.636;2023-09-08T12:32:35;101282.06;;;42.15;24.26
79586;BME280;69054;50.866;4.636;2023-09-08T12:35:03;101277.66;;;42.32;23.59
79586;BME280;69054;50.866;4.636;2023-09-08T12:37:29;101289.19;;;42.35;24.82
79586;BME280;69054;50.866;4.636;2023-09-08T12:39:55;101278.09;;;42.34;22.55
79586;BME280;69054;50.866;4.636;2023-09-08T12:42:21;101268.78;;;40.24;25.78
79586;BME280;69054;50.866;4.636;2023-09-08T12:44:50;101269.00;;;39.81;26.21
79586;BME280;69054;50.866;4.636;2023-09-08T12:47:16;101264.50;;;40.07;25.79
79586;BME280;69054;50.866;4.636;2023-09-08T12:49:41;101263.44;;;39.92;25.65
79586;BME280;69054;50.866;4.636;2023-09-08T12:52:07;101264.47;;;39.53;26.75